createdAt,value
2019-01-13T00:00:43.284Z,12.90
2019-01-13T00:01:43.274Z,9.00
2019-01-13T00:02:43.268Z,7.20
2019-01-13T00:03:43.251Z,5.10
2019-01-13T00:04:43.241Z,5.80
2019-01-13T00:05:43.231Z,5.00
2019-01-13T00:06:43.230Z,5.90
2019-01-13T00:07:43.210Z,6.70
2019-01-13T00:08:43.200Z,6.40
2019-01-13T00:09:43.189Z,3.90
2019-01-13T00:10:43.177Z,3.50
2019-01-13T00:11:43.167Z,3.30
2019-01-13T00:12:43.156Z,4.10
2019-01-13T00:13:43.146Z,4.80
2019-01-13T00:14:43.138Z,5.40
2019-01-13T00:15:43.126Z,5.80
2019-01-13T00:16:43.115Z,6.20
2019-01-13T00:17:43.103Z,4.30
2019-01-13T00:18:43.100Z,3.90
2019-01-13T00:19:43.084Z,5.30
2019-01-13T00:20:43.077Z,6.40
2019-01-13T00:21:43.062Z,4.00
2019-01-13T00:22:43.103Z,4.30
2019-01-13T00:23:43.090Z,3.30
2019-01-13T00:24:43.030Z,5.00
2019-01-13T00:25:43.020Z,5.60
2019-01-13T00:26:43.008Z,7.60
2019-01-13T00:27:42.998Z,5.70
2019-01-13T00:28:42.985Z,5.50
2019-01-13T00:29:42.976Z,5.80
2019-01-13T00:30:42.966Z,4.10
2019-01-13T00:31:42.954Z,5.40
2019-01-13T00:32:42.943Z,3.50
2019-01-13T00:33:42.937Z,6.30
2019-01-13T00:34:42.921Z,4.60
2019-01-13T00:35:42.913Z,5.30
2019-01-13T00:36:42.900Z,3.50
2019-01-13T00:37:42.890Z,4.90
2019-01-13T00:38:42.881Z,6.60
2019-01-13T00:39:42.877Z,6.20
2019-01-13T00:40:42.863Z,11.60
2019-01-13T00:41:42.849Z,10.40
2019-01-13T00:42:42.835Z,6.80
2019-01-13T00:43:42.826Z,6.20
2019-01-13T00:44:43.831Z,4.40
2019-01-13T00:45:42.805Z,5.50
2019-01-13T00:46:42.794Z,5.00
2019-01-13T00:47:42.786Z,5.90
2019-01-13T00:48:42.772Z,5.80
2019-01-13T00:49:42.762Z,3.50
2019-01-13T00:50:42.754Z,4.30
2019-01-13T00:51:42.740Z,8.10
2019-01-13T00:52:42.734Z,5.30
2019-01-13T00:53:43.011Z,5.80
2019-01-13T00:54:42.712Z,5.20
2019-01-13T00:55:42.701Z,12.00
2019-01-13T00:56:42.687Z,10.20
2019-01-13T00:57:42.680Z,6.50
2019-01-13T00:58:42.665Z,3.70
2019-01-13T00:59:42.655Z,5.30
2019-01-13T01:00:42.647Z,4.90
2019-01-13T01:01:42.633Z,6.00
2019-01-13T01:02:42.623Z,3.20
2019-01-13T01:03:42.613Z,4.90
2019-01-13T01:04:42.603Z,3.70
2019-01-13T01:05:42.594Z,6.60
2019-01-13T01:06:42.581Z,6.10
2019-01-13T01:07:42.570Z,4.10
2019-01-13T01:08:42.560Z,4.70
2019-01-13T01:09:42.548Z,7.00
2019-01-13T01:10:42.537Z,5.50
2019-01-13T01:11:42.528Z,7.90
2019-01-13T01:12:42.517Z,4.70
2019-01-13T01:13:42.507Z,4.10
2019-01-13T01:14:42.496Z,4.50
2019-01-13T01:15:42.485Z,4.30
2019-01-13T01:16:42.474Z,7.50
2019-01-13T01:17:42.464Z,5.50
2019-01-13T01:18:42.453Z,3.90
2019-01-13T01:19:42.444Z,3.00
2019-01-13T01:20:42.434Z,4.60
2019-01-13T01:21:42.425Z,4.40
2019-01-13T01:22:42.411Z,7.20
2019-01-13T01:23:42.402Z,4.70
2019-01-13T01:24:42.389Z,4.60
2019-01-13T01:25:42.378Z,3.00
2019-01-13T01:26:42.372Z,6.70
2019-01-13T01:27:42.357Z,4.50
2019-01-13T01:28:42.347Z,4.30
2019-01-13T01:29:42.335Z,3.80
2019-01-13T01:30:42.327Z,2.40
2019-01-13T01:31:42.315Z,4.70
2019-01-13T01:32:42.312Z,5.40
2019-01-13T01:33:42.291Z,4.10
2019-01-13T01:34:42.282Z,3.30
2019-01-13T01:35:42.271Z,3.40
2019-01-13T01:36:42.259Z,2.90
2019-01-13T01:37:42.250Z,3.50
2019-01-13T01:38:42.246Z,4.10
2019-01-13T01:39:42.234Z,2.10
2019-01-13T01:40:42.220Z,2.50
2019-01-13T01:41:42.208Z,3.10
2019-01-13T01:42:42.198Z,3.80
2019-01-13T01:43:42.189Z,3.90
2019-01-13T01:44:42.177Z,4.80
2019-01-13T01:45:42.165Z,1.40
2019-01-13T01:46:42.154Z,3.40
2019-01-13T01:47:42.146Z,1.60
2019-01-13T01:48:42.135Z,2.80
2019-01-13T01:49:42.123Z,2.40
2019-01-13T01:50:42.112Z,3.80
2019-01-13T01:51:42.103Z,1.80
2019-01-13T01:52:42.090Z,3.90
2019-01-13T01:53:42.080Z,1.80
2019-01-13T01:54:42.069Z,1.70
2019-01-13T01:55:42.058Z,3.90
2019-01-13T01:56:42.050Z,3.50
2019-01-13T01:57:42.038Z,2.50
2019-01-13T01:58:42.025Z,3.80
2019-01-13T01:59:42.019Z,3.20
2019-01-13T02:00:42.005Z,1.30
2019-01-13T02:01:41.996Z,2.10
2019-01-13T02:02:41.985Z,3.00
2019-01-13T02:03:41.973Z,2.50
2019-01-13T02:04:41.963Z,4.40
2019-01-13T02:05:41.974Z,1.90
2019-01-13T02:06:41.964Z,3.20
2019-01-13T02:07:41.933Z,1.60
2019-01-13T02:08:41.919Z,1.90
2019-01-13T02:09:41.909Z,2.10
2019-01-13T02:10:41.897Z,3.30
2019-01-13T02:11:41.888Z,1.90
2019-01-13T02:12:41.877Z,3.20
2019-01-13T02:13:41.874Z,2.90
2019-01-13T02:14:41.855Z,2.10
2019-01-13T02:15:41.845Z,2.20
2019-01-13T02:16:41.834Z,2.20
2019-01-13T02:17:41.822Z,1.60
2019-01-13T02:18:41.812Z,3.40
2019-01-13T02:19:41.807Z,1.70
2019-01-13T02:20:41.791Z,1.70
2019-01-13T02:21:41.781Z,3.10
2019-01-13T02:22:41.772Z,5.40
2019-01-13T02:23:41.759Z,5.20
2019-01-13T02:24:41.748Z,1.90
2019-01-13T02:25:41.747Z,2.40
2019-01-13T02:26:41.728Z,4.20
2019-01-13T02:27:41.716Z,1.70
2019-01-13T02:28:41.707Z,2.10
2019-01-13T02:29:41.697Z,3.80
2019-01-13T02:30:48.796Z,1.00
2019-01-13T02:31:42.745Z,3.60
2019-01-13T02:32:41.663Z,2.80
2019-01-13T02:33:41.653Z,2.00
2019-01-13T02:34:41.645Z,3.40
2019-01-13T02:35:41.634Z,2.70
2019-01-13T02:36:41.622Z,1.80
2019-01-13T02:37:41.620Z,1.40
2019-01-13T02:38:41.598Z,2.10
2019-01-13T02:39:41.590Z,1.40
2019-01-13T02:40:41.580Z,3.40
2019-01-13T02:41:41.567Z,1.90
2019-01-13T02:42:41.562Z,1.80
2019-01-13T02:43:41.545Z,2.00
2019-01-13T02:44:41.536Z,2.40
2019-01-13T02:45:41.524Z,1.20
2019-01-13T02:46:41.519Z,2.60
2019-01-13T02:47:41.503Z,3.40
2019-01-13T02:48:41.492Z,2.10
2019-01-13T02:49:41.485Z,2.80
2019-01-13T02:50:41.471Z,0.90
2019-01-13T02:51:41.460Z,3.20
2019-01-13T02:52:41.450Z,2.40
2019-01-13T02:53:41.440Z,3.40
2019-01-13T02:54:41.427Z,3.10
2019-01-13T02:55:41.418Z,1.80
2019-01-13T02:56:41.407Z,2.40
2019-01-13T02:57:41.398Z,3.00
2019-01-13T02:58:41.390Z,3.30
2019-01-13T02:59:41.374Z,5.00
2019-01-13T03:00:41.365Z,2.60
2019-01-13T03:01:41.355Z,1.70
2019-01-13T03:02:41.343Z,2.40
2019-01-13T03:03:41.331Z,4.70
2019-01-13T03:04:41.320Z,3.50
2019-01-13T03:05:41.312Z,3.10
2019-01-13T03:06:41.306Z,2.10
2019-01-13T03:07:41.290Z,2.10
2019-01-13T03:08:41.278Z,2.40
2019-01-13T03:09:41.270Z,3.20
2019-01-13T03:10:41.257Z,2.00
2019-01-13T03:11:41.252Z,1.50
2019-01-13T03:12:41.244Z,5.10
2019-01-13T03:13:41.227Z,2.90
2019-01-13T03:14:41.214Z,1.90
2019-01-13T03:15:41.213Z,2.20
2019-01-13T03:16:41.196Z,5.30
2019-01-13T03:17:41.186Z,2.40
2019-01-13T03:18:41.183Z,2.60
2019-01-13T03:19:41.162Z,4.80
2019-01-13T03:20:41.152Z,3.10
2019-01-13T03:21:41.145Z,3.70
2019-01-13T03:22:41.134Z,4.00
2019-01-13T03:23:41.120Z,3.10
2019-01-13T03:24:41.108Z,5.80
2019-01-13T03:25:41.099Z,5.60
2019-01-13T03:26:41.090Z,5.90
2019-01-13T03:27:41.080Z,6.80
2019-01-13T03:28:41.071Z,7.50
2019-01-13T03:29:41.054Z,5.60
2019-01-13T03:30:41.047Z,8.20
2019-01-13T03:31:41.036Z,7.30
2019-01-13T03:32:41.028Z,7.60
2019-01-13T03:33:41.014Z,4.20
2019-01-13T03:34:41.003Z,6.30
2019-01-13T03:35:40.998Z,4.10
2019-01-13T03:36:40.984Z,5.30
2019-01-13T03:37:40.971Z,3.60
2019-01-13T03:38:40.961Z,4.50
2019-01-13T03:39:40.950Z,4.60
2019-01-13T03:40:40.943Z,2.90
2019-01-13T03:41:40.930Z,6.50
2019-01-13T03:42:40.917Z,5.60
2019-01-13T03:43:40.907Z,5.40
2019-01-13T03:44:40.901Z,3.40
2019-01-13T03:45:40.887Z,4.50
2019-01-13T03:46:40.876Z,5.20
2019-01-13T03:47:40.863Z,3.90
2019-01-13T03:48:40.853Z,4.30
2019-01-13T03:49:40.843Z,4.10
2019-01-13T03:50:40.831Z,7.40
2019-01-13T03:51:40.822Z,4.70
2019-01-13T03:52:40.811Z,3.30
2019-01-13T03:53:40.804Z,4.00
2019-01-13T03:54:40.790Z,3.80
2019-01-13T03:55:40.779Z,7.80
2019-01-13T03:56:40.769Z,3.60
2019-01-13T03:57:41.149Z,4.30
2019-01-13T03:58:40.746Z,2.80
2019-01-13T03:59:40.740Z,3.20
2019-01-13T04:00:40.726Z,4.70
2019-01-13T04:01:40.715Z,3.70
2019-01-13T04:02:40.708Z,6.10
2019-01-13T04:03:40.694Z,4.50
2019-01-13T04:04:40.682Z,5.20
2019-01-13T04:05:40.678Z,4.40
2019-01-13T04:06:40.661Z,5.90
2019-01-13T04:07:40.653Z,5.10
2019-01-13T04:08:40.641Z,4.80
2019-01-13T04:09:40.631Z,6.20
2019-01-13T04:10:40.618Z,3.80
2019-01-13T04:11:40.606Z,4.50
2019-01-13T04:12:40.597Z,5.50
2019-01-13T04:13:40.589Z,4.20
2019-01-13T04:14:40.579Z,5.80
2019-01-13T04:15:40.567Z,5.40
2019-01-13T04:16:40.553Z,5.20
2019-01-13T04:17:40.545Z,3.80
2019-01-13T04:18:40.532Z,5.80
2019-01-13T04:19:40.521Z,4.40
2019-01-13T04:20:40.512Z,4.20
2019-01-13T04:21:40.501Z,7.70
2019-01-13T04:22:40.490Z,6.70
2019-01-13T04:23:40.479Z,3.00
2019-01-13T04:24:40.473Z,5.20
2019-01-13T04:25:40.457Z,4.40
2019-01-13T04:26:40.446Z,5.10
2019-01-13T04:27:40.438Z,3.50
2019-01-13T04:28:40.425Z,5.80
2019-01-13T04:29:40.414Z,4.10
2019-01-13T04:30:40.407Z,3.30
2019-01-13T04:31:40.396Z,5.00
2019-01-13T04:32:40.385Z,3.10
2019-01-13T04:33:40.376Z,4.10
2019-01-13T04:34:40.361Z,4.70
2019-01-13T04:35:40.352Z,4.40
2019-01-13T04:36:40.343Z,3.30
2019-01-13T04:37:40.332Z,7.40
2019-01-13T04:38:40.319Z,5.50
2019-01-13T04:39:40.308Z,3.50
2019-01-13T04:40:40.306Z,4.00
2019-01-13T04:41:40.290Z,4.50
2019-01-13T04:42:40.277Z,2.80
2019-01-13T04:43:40.267Z,4.20
2019-01-13T04:44:40.256Z,2.90
2019-01-13T04:45:40.244Z,4.30
2019-01-13T04:46:40.239Z,2.70
2019-01-13T04:47:40.225Z,3.90
2019-01-13T04:48:40.212Z,2.90
2019-01-13T04:49:40.206Z,5.00
2019-01-13T04:50:40.190Z,4.10
2019-01-13T04:51:40.179Z,2.80
2019-01-13T04:52:40.169Z,3.20
2019-01-13T04:53:40.157Z,3.20
2019-01-13T04:54:40.148Z,4.10
2019-01-13T04:55:40.140Z,3.70
2019-01-13T04:56:40.223Z,4.70
2019-01-13T04:57:40.505Z,6.20
2019-01-13T04:58:40.103Z,9.20
2019-01-13T04:59:40.093Z,8.50
2019-01-13T05:00:40.083Z,8.10
2019-01-13T05:01:40.078Z,8.20
2019-01-13T05:02:40.065Z,6.20
2019-01-13T05:03:40.052Z,12.90
2019-01-13T05:04:40.045Z,10.60
2019-01-13T05:05:40.032Z,19.70
2019-01-13T05:06:40.020Z,11.10
2019-01-13T05:07:40.009Z,8.20
2019-01-13T05:08:39.997Z,12.40
2019-01-13T05:09:39.987Z,11.80
2019-01-13T05:10:39.979Z,11.70
2019-01-13T05:11:39.972Z,18.60
2019-01-13T05:12:39.958Z,13.00
2019-01-13T05:13:39.947Z,12.20
2019-01-13T05:14:39.932Z,6.20
2019-01-13T05:15:39.923Z,8.70
2019-01-13T05:16:39.911Z,9.00
2019-01-13T05:17:39.904Z,8.90
2019-01-13T05:18:39.895Z,13.70
2019-01-13T05:19:39.884Z,12.50
2019-01-13T05:20:40.379Z,10.00
2019-01-13T05:21:39.866Z,14.80
2019-01-13T05:22:39.851Z,14.70
2019-01-13T05:23:39.838Z,15.10
2019-01-13T05:24:39.835Z,15.90
2019-01-13T05:25:39.817Z,18.10
2019-01-13T05:26:39.808Z,11.00
2019-01-13T05:27:39.805Z,9.00
2019-01-13T05:28:39.786Z,8.80
2019-01-13T05:29:39.773Z,6.50
2019-01-13T05:30:39.769Z,10.80
2019-01-13T05:31:42.183Z,10.10
2019-01-13T05:32:39.743Z,18.00
2019-01-13T05:33:39.734Z,16.40
2019-01-13T05:34:39.721Z,8.30
2019-01-13T05:35:39.709Z,14.70
2019-01-13T05:36:39.701Z,13.30
2019-01-13T05:37:39.690Z,8.10
2019-01-13T05:38:39.681Z,16.50
2019-01-13T05:39:39.675Z,13.50
2019-01-13T05:40:39.657Z,8.10
2019-01-13T05:41:39.652Z,7.70
2019-01-13T05:42:39.636Z,12.30
2019-01-13T05:43:39.625Z,13.20
2019-01-13T05:44:39.617Z,10.90
2019-01-13T05:45:39.609Z,6.30
2019-01-13T05:46:39.592Z,7.50
2019-01-13T05:47:39.582Z,7.10
2019-01-13T05:48:39.571Z,5.60
2019-01-13T05:49:39.563Z,5.90
2019-01-13T05:50:39.550Z,4.20
2019-01-13T05:51:39.541Z,3.00
2019-01-13T05:52:39.528Z,5.70
2019-01-13T05:53:39.521Z,5.40
2019-01-13T05:54:39.506Z,5.70
2019-01-13T05:55:39.496Z,4.80
2019-01-13T05:56:39.487Z,7.60
2019-01-13T05:57:39.475Z,5.10
2019-01-13T05:58:39.465Z,5.40
2019-01-13T05:59:39.455Z,4.60
2019-01-13T06:00:39.442Z,5.30
2019-01-13T06:01:39.432Z,4.60
2019-01-13T06:02:39.424Z,8.90
2019-01-13T06:03:39.415Z,4.70
2019-01-13T06:04:39.399Z,5.60
2019-01-13T06:05:39.391Z,4.70
2019-01-13T06:06:39.381Z,7.20
2019-01-13T06:07:39.374Z,4.70
2019-01-13T06:08:39.361Z,4.10
2019-01-13T06:09:39.346Z,4.40
2019-01-13T06:10:39.336Z,4.90
2019-01-13T06:11:39.327Z,3.80
2019-01-13T06:12:39.315Z,4.40
2019-01-13T06:13:39.302Z,4.80
2019-01-13T06:14:39.294Z,3.60
2019-01-13T06:15:39.283Z,6.00
2019-01-13T06:16:39.274Z,5.90
2019-01-13T06:17:39.263Z,5.70
2019-01-13T06:18:39.249Z,6.50
2019-01-13T06:19:39.239Z,4.50
2019-01-13T06:20:39.233Z,5.60
2019-01-13T06:21:39.218Z,3.40
2019-01-13T06:22:39.212Z,4.80
2019-01-13T06:23:39.200Z,6.20
2019-01-13T06:24:39.186Z,4.30
2019-01-13T06:25:39.177Z,3.40
2019-01-13T06:26:39.171Z,5.20
2019-01-13T06:27:39.153Z,5.70
2019-01-13T06:28:39.151Z,7.30
2019-01-13T06:29:39.133Z,4.80
2019-01-13T06:30:39.123Z,3.80
2019-01-13T06:31:39.113Z,4.90
2019-01-13T06:32:39.106Z,5.00
2019-01-13T06:33:39.091Z,5.60
2019-01-13T06:34:39.082Z,7.80
2019-01-13T06:35:39.084Z,3.80
2019-01-13T06:36:39.063Z,5.50
2019-01-13T06:37:39.047Z,3.30
2019-01-13T06:38:39.045Z,5.60
2019-01-13T06:39:39.026Z,5.10
2019-01-13T06:40:39.016Z,4.30
2019-01-13T06:41:39.005Z,4.30
2019-01-13T06:42:38.995Z,7.60
2019-01-13T06:43:38.984Z,6.70
2019-01-13T06:44:38.974Z,3.40
2019-01-13T06:45:38.962Z,6.30
2019-01-13T06:46:38.958Z,6.30
2019-01-13T06:47:38.941Z,3.50
2019-01-13T06:48:38.930Z,2.30
2019-01-13T06:49:38.927Z,6.50
2019-01-13T06:50:38.908Z,5.70
2019-01-13T06:51:38.903Z,6.50
2019-01-13T06:52:38.888Z,3.90
2019-01-13T06:53:38.876Z,4.50
2019-01-13T06:54:38.867Z,7.20
2019-01-13T06:55:38.855Z,4.10
2019-01-13T06:56:38.849Z,5.60
2019-01-13T06:57:38.834Z,6.10
2019-01-13T06:58:38.825Z,4.60
2019-01-13T06:59:38.815Z,5.10
2019-01-13T07:00:38.803Z,4.10
2019-01-13T07:01:38.791Z,3.80
2019-01-13T07:02:38.782Z,4.80
2019-01-13T07:03:38.773Z,6.20
2019-01-13T07:04:38.759Z,4.00
2019-01-13T07:05:38.749Z,4.50
2019-01-13T07:06:38.739Z,3.70
2019-01-13T07:07:38.729Z,2.80
2019-01-13T07:08:38.718Z,4.20
2019-01-13T07:09:38.707Z,7.10
2019-01-13T07:10:38.696Z,4.20
2019-01-13T07:11:38.684Z,4.90
2019-01-13T07:12:38.673Z,6.30
2019-01-13T07:13:38.669Z,3.50
2019-01-13T07:14:38.657Z,3.40
2019-01-13T07:15:38.641Z,4.10
2019-01-13T07:16:38.635Z,3.80
2019-01-13T07:17:38.620Z,3.20
2019-01-13T07:18:38.609Z,6.30
2019-01-13T07:19:38.605Z,3.30
2019-01-13T07:20:38.589Z,4.40
2019-01-13T07:21:38.578Z,4.90
2019-01-13T07:22:38.568Z,5.40
2019-01-13T07:23:38.557Z,4.10
2019-01-13T07:24:38.547Z,5.10
2019-01-13T07:25:38.549Z,3.40
2019-01-13T07:26:38.524Z,3.90
2019-01-13T07:27:38.516Z,4.40
2019-01-13T07:28:38.502Z,4.80
2019-01-13T07:29:38.495Z,5.20
2019-01-13T07:30:38.481Z,4.00
2019-01-13T07:31:38.470Z,3.20
2019-01-13T07:32:38.461Z,4.40
2019-01-13T07:33:38.451Z,4.40
2019-01-13T07:34:38.441Z,4.10
2019-01-13T07:35:38.427Z,3.80
2019-01-13T07:36:38.420Z,3.20
2019-01-13T07:37:38.420Z,5.00
2019-01-13T07:38:38.399Z,5.80
2019-01-13T07:39:38.386Z,4.40
2019-01-13T07:40:38.375Z,6.20
2019-01-13T07:41:38.364Z,5.80
2019-01-13T07:42:38.353Z,3.50
2019-01-13T07:43:38.347Z,3.00
2019-01-13T07:44:38.331Z,9.10
2019-01-13T07:45:38.321Z,5.70
2019-01-13T07:46:38.314Z,5.20
2019-01-13T07:47:38.301Z,3.00
2019-01-13T07:48:38.291Z,5.70
2019-01-13T07:49:38.746Z,5.10
2019-01-13T07:50:38.267Z,5.70
2019-01-13T07:51:38.257Z,5.00
2019-01-13T07:52:38.248Z,5.50
2019-01-13T07:53:38.236Z,5.00
2019-01-13T07:54:38.225Z,3.90
2019-01-13T07:55:38.217Z,5.80
2019-01-13T07:56:38.205Z,5.00
2019-01-13T07:57:38.193Z,2.90
2019-01-13T07:58:38.181Z,4.30
2019-01-13T07:59:38.173Z,6.00
2019-01-13T08:00:38.164Z,3.70
2019-01-13T08:01:38.154Z,7.00
2019-01-13T08:02:38.140Z,4.90
2019-01-13T08:03:38.129Z,6.00
2019-01-13T08:04:38.122Z,2.20
2019-01-13T08:05:38.112Z,3.80
2019-01-13T08:06:38.103Z,3.80
2019-01-13T08:07:38.089Z,5.20
2019-01-13T08:08:38.079Z,6.10
2019-01-13T08:09:38.064Z,4.30
2019-01-13T08:10:38.053Z,4.90
2019-01-13T08:11:38.044Z,3.70
2019-01-13T08:12:38.037Z,4.50
2019-01-13T08:13:38.034Z,4.40
2019-01-13T08:14:38.011Z,4.50
2019-01-13T08:15:38.000Z,2.90
2019-01-13T08:16:37.990Z,7.30
2019-01-13T08:17:37.980Z,3.60
2019-01-13T08:18:37.982Z,3.30
2019-01-13T08:19:37.967Z,3.70
2019-01-13T08:20:37.948Z,3.90
2019-01-13T08:21:37.937Z,4.20
2019-01-13T08:22:37.928Z,4.90
2019-01-13T08:23:37.917Z,3.70
2019-01-13T08:24:37.905Z,3.90
2019-01-13T08:25:37.898Z,5.80
2019-01-13T08:26:37.883Z,4.00
2019-01-13T08:27:37.873Z,5.30
2019-01-13T08:28:37.861Z,2.90
2019-01-13T08:29:37.853Z,5.90
2019-01-13T08:30:37.840Z,4.60
2019-01-13T08:31:37.830Z,5.30
2019-01-13T08:32:37.822Z,7.50
2019-01-13T08:33:37.808Z,4.20
2019-01-13T08:34:37.797Z,5.60
2019-01-13T08:35:37.790Z,3.60
2019-01-13T08:36:37.778Z,4.30
2019-01-13T08:37:37.764Z,3.60
2019-01-13T08:38:37.758Z,4.90
2019-01-13T08:39:37.745Z,6.50
2019-01-13T08:40:37.733Z,4.20
2019-01-13T08:41:37.725Z,6.20
2019-01-13T08:42:37.714Z,4.70
2019-01-13T08:43:37.704Z,5.00
2019-01-13T08:44:37.689Z,8.20
2019-01-13T08:45:37.682Z,4.00
2019-01-13T08:46:37.671Z,4.40
2019-01-13T08:47:37.660Z,3.90
2019-01-13T08:48:37.651Z,7.00
2019-01-13T08:49:37.641Z,6.80
2019-01-13T08:50:37.627Z,3.90
2019-01-13T08:51:37.618Z,4.60
2019-01-13T08:52:37.610Z,5.10
2019-01-13T08:53:37.599Z,4.40
2019-01-13T08:54:37.585Z,5.60
2019-01-13T08:55:37.575Z,4.50
2019-01-13T08:56:37.563Z,4.00
2019-01-13T08:57:37.551Z,6.10
2019-01-13T08:58:37.540Z,3.60
2019-01-13T08:59:37.534Z,4.40
2019-01-13T09:00:37.522Z,4.10
2019-01-13T09:01:37.508Z,3.80
2019-01-13T09:02:37.508Z,6.90
2019-01-13T09:03:37.489Z,5.10
2019-01-13T09:04:37.479Z,7.40
2019-01-13T09:05:37.470Z,7.30
2019-01-13T09:06:37.458Z,7.80
2019-01-13T09:07:37.445Z,7.60
2019-01-13T09:08:37.439Z,5.70
2019-01-13T09:09:37.428Z,6.10
2019-01-13T09:10:37.414Z,6.30
2019-01-13T09:11:37.402Z,4.80
2019-01-13T09:12:37.393Z,15.60
2019-01-13T09:13:37.381Z,7.50
2019-01-13T09:14:37.371Z,14.50
2019-01-13T09:15:37.359Z,6.70
2019-01-13T09:16:37.348Z,4.70
2019-01-13T09:17:37.374Z,4.40
2019-01-13T09:18:37.328Z,3.90
2019-01-13T09:19:37.317Z,4.80
2019-01-13T09:20:37.307Z,5.70
2019-01-13T09:21:37.297Z,6.90
2019-01-13T09:22:37.286Z,5.50
2019-01-13T09:23:37.276Z,8.60
2019-01-13T09:24:37.265Z,4.60
2019-01-13T09:25:37.255Z,5.80
2019-01-13T09:26:38.834Z,4.80
2019-01-13T09:27:37.234Z,7.50
2019-01-13T09:28:37.221Z,7.10
2019-01-13T09:29:42.469Z,7.30
2019-01-13T09:30:38.198Z,7.90
2019-01-13T09:31:37.190Z,5.70
2019-01-13T09:32:39.550Z,7.60
2019-01-13T09:33:37.168Z,9.90
2019-01-13T09:34:37.159Z,8.90
2019-01-13T09:35:37.145Z,8.00
2019-01-13T09:36:37.137Z,9.10
2019-01-13T09:37:37.126Z,6.30
2019-01-13T09:38:37.118Z,7.10
2019-01-13T09:39:37.104Z,7.80
2019-01-13T09:40:37.096Z,7.90
2019-01-13T09:41:37.082Z,8.40
2019-01-13T09:42:37.072Z,10.60
2019-01-13T09:43:37.063Z,8.00
2019-01-13T09:44:37.051Z,6.80
2019-01-13T09:45:37.047Z,6.10
2019-01-13T09:46:37.031Z,6.80
2019-01-13T09:47:37.018Z,7.60
2019-01-13T09:48:37.006Z,10.20
2019-01-13T09:49:36.997Z,12.20
2019-01-13T09:50:36.990Z,6.10
2019-01-13T09:51:36.974Z,6.20
2019-01-13T09:52:36.971Z,8.60
2019-01-13T09:53:36.959Z,9.30
2019-01-13T09:54:36.941Z,7.90
2019-01-13T09:55:36.933Z,12.50
2019-01-13T09:56:36.923Z,7.60
2019-01-13T09:57:36.911Z,5.80
2019-01-13T09:58:37.766Z,6.90
2019-01-13T09:59:36.890Z,6.50
2019-01-13T10:00:36.881Z,9.00
2019-01-13T10:01:36.872Z,6.00
2019-01-13T10:02:36.857Z,4.80
2019-01-13T10:03:36.846Z,5.00
2019-01-13T10:04:36.837Z,5.60
2019-01-13T10:05:36.830Z,4.90
2019-01-13T10:06:36.819Z,8.20
2019-01-13T10:07:36.804Z,7.50
2019-01-13T10:08:36.797Z,6.20
2019-01-13T10:09:36.782Z,6.40
2019-01-13T10:10:36.771Z,7.50
2019-01-13T10:11:36.763Z,5.50
2019-01-13T10:12:36.750Z,6.40
2019-01-13T10:13:36.745Z,4.20
2019-01-13T10:14:36.728Z,5.40
2019-01-13T10:15:36.766Z,5.20
2019-01-13T10:16:36.710Z,6.20
2019-01-13T10:17:36.741Z,5.10
2019-01-13T10:18:36.695Z,5.50
2019-01-13T10:19:36.683Z,5.60
2019-01-13T10:20:36.673Z,4.80
2019-01-13T10:21:36.662Z,4.00
2019-01-13T10:22:36.660Z,5.70
2019-01-13T10:23:36.633Z,5.60
2019-01-13T10:24:36.635Z,5.40
2019-01-13T10:25:36.616Z,6.60
2019-01-13T10:26:36.602Z,7.60
2019-01-13T10:27:36.596Z,5.10
2019-01-13T10:28:36.582Z,4.60
2019-01-13T10:29:36.568Z,3.90
2019-01-13T10:30:36.559Z,6.40
2019-01-13T10:31:36.548Z,5.40
2019-01-13T10:32:36.535Z,7.40
2019-01-13T10:33:36.531Z,7.30
2019-01-13T10:34:36.518Z,5.00
2019-01-13T10:35:36.505Z,4.90
2019-01-13T10:36:36.497Z,5.30
2019-01-13T10:37:36.484Z,4.60
2019-01-13T10:38:36.476Z,6.90
2019-01-13T10:39:36.473Z,4.90
2019-01-13T10:40:36.455Z,5.60
2019-01-13T10:41:36.441Z,3.70
2019-01-13T10:42:36.431Z,7.80
2019-01-13T10:43:36.418Z,4.90
2019-01-13T10:44:36.409Z,5.00
2019-01-13T10:45:36.397Z,5.00
2019-01-13T10:46:36.500Z,7.00
2019-01-13T10:47:36.557Z,5.10
2019-01-13T10:48:36.365Z,4.00
2019-01-13T10:49:36.404Z,4.00
2019-01-13T10:50:36.345Z,2.40
2019-01-13T10:51:36.334Z,7.50
2019-01-13T10:52:36.322Z,5.20
2019-01-13T10:53:36.311Z,6.20
2019-01-13T10:54:36.306Z,6.40
2019-01-13T10:55:36.294Z,8.60
2019-01-13T10:56:36.282Z,4.50
2019-01-13T10:57:36.269Z,6.30
2019-01-13T10:58:36.261Z,4.90
2019-01-13T10:59:36.250Z,5.20
2019-01-13T11:00:36.239Z,6.40
2019-01-13T11:01:36.225Z,6.80
2019-01-13T11:02:36.219Z,6.60
2019-01-13T11:03:36.204Z,6.30
2019-01-13T11:04:36.196Z,5.50
2019-01-13T11:05:36.183Z,4.90
2019-01-13T11:06:36.240Z,3.70
2019-01-13T11:07:36.162Z,4.30
2019-01-13T11:08:36.152Z,5.10
2019-01-13T11:09:36.144Z,4.90
2019-01-13T11:10:36.130Z,5.00
2019-01-13T11:11:36.119Z,3.40
2019-01-13T11:12:36.110Z,4.70
2019-01-13T11:13:36.099Z,3.30
2019-01-13T11:14:36.086Z,6.80
2019-01-13T11:15:36.082Z,4.40
2019-01-13T11:16:36.071Z,6.50
2019-01-13T11:17:36.058Z,4.70
2019-01-13T11:18:36.102Z,2.80
2019-01-13T11:19:36.035Z,3.60
2019-01-13T11:20:36.027Z,3.60
2019-01-13T11:21:36.013Z,4.70
2019-01-13T11:22:36.005Z,3.60
2019-01-13T11:23:36.027Z,5.10
2019-01-13T11:24:35.981Z,5.50
2019-01-13T11:25:35.970Z,4.80
2019-01-13T11:26:35.959Z,5.60
2019-01-13T11:27:35.951Z,3.30
2019-01-13T11:28:35.939Z,5.50
2019-01-13T11:29:35.927Z,3.30
2019-01-13T11:30:35.918Z,3.50
2019-01-13T11:31:35.906Z,3.70
2019-01-13T11:32:35.895Z,3.90
2019-01-13T11:33:35.885Z,4.00
2019-01-13T11:34:35.875Z,5.10
2019-01-13T11:35:35.863Z,3.00
2019-01-13T11:36:35.852Z,4.60
2019-01-13T11:37:35.841Z,4.60
2019-01-13T11:38:35.845Z,3.80
2019-01-13T11:39:35.820Z,3.80
2019-01-13T11:40:35.813Z,3.10
2019-01-13T11:41:35.800Z,4.10
2019-01-13T11:42:35.816Z,3.10
2019-01-13T11:43:35.779Z,2.60
2019-01-13T11:44:35.767Z,3.20
2019-01-13T11:45:35.755Z,3.20
2019-01-13T11:46:35.744Z,3.50
2019-01-13T11:47:35.735Z,4.20
2019-01-13T11:48:35.751Z,6.40
2019-01-13T11:49:35.712Z,2.20
2019-01-13T11:50:35.706Z,2.20
2019-01-13T11:51:35.694Z,2.80
2019-01-13T11:52:35.680Z,3.10
2019-01-13T11:53:35.671Z,2.30
2019-01-13T11:54:35.658Z,4.70
2019-01-13T11:55:35.655Z,3.80
2019-01-13T11:56:35.641Z,2.20
2019-01-13T11:57:35.627Z,3.40
2019-01-13T11:58:35.616Z,3.10
2019-01-13T11:59:35.610Z,2.80
2019-01-13T12:00:35.596Z,2.70
2019-01-13T12:01:35.587Z,3.30
2019-01-13T12:02:35.579Z,2.20
2019-01-13T12:03:36.013Z,2.80
2019-01-13T12:04:35.553Z,3.00
2019-01-13T12:05:35.542Z,1.50
2019-01-13T12:06:35.531Z,2.70
2019-01-13T12:07:35.522Z,2.00
2019-01-13T12:08:35.510Z,2.30
2019-01-13T12:09:35.499Z,4.20
2019-01-13T12:10:35.491Z,3.00
2019-01-13T12:11:35.481Z,4.10
2019-01-13T12:12:35.468Z,1.70
2019-01-13T12:13:35.459Z,1.80
2019-01-13T12:14:35.447Z,1.80
2019-01-13T12:15:35.438Z,2.60
2019-01-13T12:16:35.425Z,1.70
2019-01-13T12:17:35.413Z,3.10
2019-01-13T12:18:40.455Z,1.90
2019-01-13T12:19:36.391Z,2.20
2019-01-13T12:20:35.387Z,1.50
2019-01-13T12:21:35.371Z,3.10
2019-01-13T12:22:35.360Z,2.50
2019-01-13T12:23:35.349Z,2.40
2019-01-13T12:24:35.340Z,1.50
2019-01-13T12:25:35.328Z,1.10
2019-01-13T12:26:35.317Z,1.40
2019-01-13T12:27:35.311Z,2.30
2019-01-13T12:28:35.298Z,1.80
2019-01-13T12:29:35.286Z,3.20
2019-01-13T12:30:35.279Z,3.90
2019-01-13T12:31:35.269Z,3.10
2019-01-13T12:32:35.263Z,3.40
2019-01-13T12:33:35.243Z,2.20
2019-01-13T12:34:35.233Z,2.80
2019-01-13T12:35:35.223Z,3.40
2019-01-13T12:36:35.210Z,1.80
2019-01-13T12:37:35.199Z,2.10
2019-01-13T12:38:35.192Z,2.30
2019-01-13T12:39:35.186Z,2.60
2019-01-13T12:40:35.176Z,2.00
2019-01-13T12:41:35.158Z,1.90
2019-01-13T12:42:35.146Z,1.80
2019-01-13T12:43:35.139Z,1.50
2019-01-13T12:44:35.126Z,3.30
2019-01-13T12:45:35.116Z,1.70
2019-01-13T12:46:35.103Z,1.70
2019-01-13T12:47:35.099Z,2.20
2019-01-13T12:48:35.084Z,2.50
2019-01-13T12:49:35.074Z,2.90
2019-01-13T12:50:35.063Z,1.60
2019-01-13T12:51:35.051Z,1.60
2019-01-13T12:52:35.044Z,1.20
2019-01-13T12:53:35.030Z,1.50
2019-01-13T12:54:35.018Z,2.30
2019-01-13T12:55:35.008Z,1.70
2019-01-13T12:56:34.997Z,2.00
2019-01-13T12:57:34.989Z,2.70
2019-01-13T12:58:34.974Z,3.10
2019-01-13T12:59:34.964Z,2.30
2019-01-13T13:00:34.960Z,3.00
2019-01-13T13:01:34.961Z,1.90
2019-01-13T13:02:34.934Z,1.90
2019-01-13T13:03:34.921Z,1.40
2019-01-13T13:04:34.910Z,1.50
2019-01-13T13:05:34.900Z,1.90
2019-01-13T13:06:34.890Z,1.90
2019-01-13T13:07:34.880Z,1.30
2019-01-13T13:08:34.876Z,1.70
2019-01-13T13:09:34.858Z,1.90
2019-01-13T13:10:34.848Z,1.70
2019-01-13T13:11:34.836Z,2.20
2019-01-13T13:12:34.825Z,1.70
2019-01-13T13:13:34.819Z,2.10
2019-01-13T13:14:34.805Z,2.70
2019-01-13T13:15:34.803Z,2.30
2019-01-13T13:16:34.783Z,2.40
2019-01-13T13:17:34.772Z,2.20